sensor_id;sensor_type;location;lat;lon;timestamp;P1;durP1;ratioP1;P2;durP2;ratioP2
72895;SDS011;61036;53.224;6.554;2023-09-07T00:00:43;7.40;;;3.17;;
72895;SDS011;61036;53.224;6.554;2023-09-07T00:03:09;6.50;;;3.67;;
72895;SDS011;61036;53.224;6.554;2023-09-07T00:05:34;4.80;;;2.80;;
72895;SDS011;61036;53.224;6.554;2023-09-07T00:08:00;6.17;;;3.20;;
72895;SDS011;61036;53.224;6.554;2023-09-07T00:10:26;5.07;;;3.10;;
72895;SDS011;61036;53.224;6.554;2023-09-07T00:12:51;5.50;;;3.00;;
72895;SDS011;61036;53.224;6.554;2023-09-07T00:15:17;6.47;;;3.40;;
72895;SDS011;61036;53.224;6.554;2023-09-07T00:17:45;5.87;;;3.60;;
72895;SDS011;61036;53.224;6.554;2023-09-07T00:20:10;5.60;;;3.07;;
72895;SDS011;61036;53.224;6.554;2023-09-07T00:22:37;5.97;;;3.20;;
72895;SDS011;61036;53.224;6.554;2023-09-07T00:25:03;4.73;;;3.20;;
72895;SDS011;61036;53.224;6.554;2023-09-07T00:27:29;6.20;;;3.43;;
72895;SDS011;61036;53.224;6.554;2023-09-07T00:29:55;5.77;;;3.27;;
72895;SDS011;61036;53.224;6.554;2023-09-07T00:32:21;5.33;;;3.00;;
72895;SDS011;61036;53.224;6.554;2023-09-07T00:34:46;5.53;;;3.20;;
72895;SDS011;61036;53.224;6.554;2023-09-07T00:37:12;6.07;;;3.27;;
72895;SDS011;61036;53.224;6.554;2023-09-07T00:39:37;5.43;;;3.10;;
72895;SDS011;61036;53.224;6.554;2023-09-07T00:42:03;6.80;;;3.00;;
72895;SDS011;61036;53.224;6.554;2023-09-07T00:44:29;5.13;;;2.90;;
72895;SDS011;61036;53.224;6.554;2023-09-07T00:46:55;5.73;;;3.03;;
72895;SDS011;61036;53.224;6.554;2023-09-07T00:49:22;6.43;;;3.87;;
72895;SDS011;61036;53.224;6.554;2023-09-07T00:51:49;5.50;;;3.00;;
72895;SDS011;61036;53.224;6.554;2023-09-07T00:54:14;6.00;;;3.30;;
72895;SDS011;61036;53.224;6.554;2023-09-07T00:56:40;5.67;;;3.40;;
72895;SDS011;61036;53.224;6.554;2023-09-07T00:59:07;7.80;;;3.40;;
72895;SDS011;61036;53.224;6.554;2023-09-07T01:01:33;7.00;;;3.20;;
72895;SDS011;61036;53.224;6.554;2023-09-07T01:04:00;6.10;;;3.10;;
72895;SDS011;61036;53.224;6.554;2023-09-07T01:06:32;5.27;;;2.90;;
72895;SDS011;61036;53.224;6.554;2023-09-07T01:09:04;7.17;;;3.37;;
72895;SDS011;61036;53.224;6.554;2023-09-07T01:11:36;6.00;;;3.37;;
72895;SDS011;61036;53.224;6.554;2023-09-07T01:14:02;9.70;;;4.03;;
72895;SDS011;61036;53.224;6.554;2023-09-07T01:16:29;6.70;;;4.00;;
72895;SDS011;61036;53.224;6.554;2023-09-07T01:18:56;6.87;;;3.73;;
72895;SDS011;61036;53.224;6.554;2023-09-07T01:21:22;7.47;;;3.50;;
72895;SDS011;61036;53.224;6.554;2023-09-07T01:23:48;6.17;;;3.47;;
72895;SDS011;61036;53.224;6.554;2023-09-07T01:26:15;6.17;;;3.60;;
72895;SDS011;61036;53.224;6.554;2023-09-07T01:28:41;6.47;;;3.37;;
72895;SDS011;61036;53.224;6.554;2023-09-07T01:31:07;6.97;;;3.90;;
72895;SDS011;61036;53.224;6.554;2023-09-07T01:33:32;6.17;;;3.50;;
72895;SDS011;61036;53.224;6.554;2023-09-07T01:35:58;7.57;;;3.70;;
72895;SDS011;61036;53.224;6.554;2023-09-07T01:38:24;5.67;;;3.70;;
72895;SDS011;61036;53.224;6.554;2023-09-07T01:40:50;5.87;;;3.53;;
72895;SDS011;61036;53.224;6.554;2023-09-07T01:43:15;7.60;;;3.97;;
72895;SDS011;61036;53.224;6.554;2023-09-07T01:45:41;7.50;;;3.63;;
72895;SDS011;61036;53.224;6.554;2023-09-07T01:48:08;6.13;;;3.47;;
72895;SDS011;61036;53.224;6.554;2023-09-07T01:50:35;5.97;;;3.33;;
72895;SDS011;61036;53.224;6.554;2023-09-07T01:53:01;7.37;;;3.67;;
72895;SDS011;61036;53.224;6.554;2023-09-07T01:55:28;6.30;;;3.80;;
72895;SDS011;61036;53.224;6.554;2023-09-07T01:57:54;5.27;;;3.40;;
72895;SDS011;61036;53.224;6.554;2023-09-07T02:00:20;5.27;;;3.13;;
72895;SDS011;61036;53.224;6.554;2023-09-07T02:02:45;6.03;;;4.07;;
72895;SDS011;61036;53.224;6.554;2023-09-07T02:05:11;6.53;;;3.97;;
72895;SDS011;61036;53.224;6.554;2023-09-07T02:07:37;6.90;;;3.93;;
72895;SDS011;61036;53.224;6.554;2023-09-07T02:10:03;7.43;;;3.70;;
72895;SDS011;61036;53.224;6.554;2023-09-07T02:12:29;7.47;;;4.17;;
72895;SDS011;61036;53.224;6.554;2023-09-07T02:14:55;7.30;;;3.70;;
72895;SDS011;61036;53.224;6.554;2023-09-07T02:17:20;5.80;;;3.53;;
72895;SDS011;61036;53.224;6.554;2023-09-07T02:19:46;6.33;;;3.83;;
72895;SDS011;61036;53.224;6.554;2023-09-07T02:22:12;5.80;;;3.30;;
72895;SDS011;61036;53.224;6.554;2023-09-07T02:24:37;6.30;;;3.77;;
72895;SDS011;61036;53.224;6.554;2023-09-07T02:27:04;7.10;;;3.57;;
72895;SDS011;61036;53.224;6.554;2023-09-07T02:29:30;5.80;;;3.80;;
72895;SDS011;61036;53.224;6.554;2023-09-07T02:31:55;7.07;;;4.17;;
72895;SDS011;61036;53.224;6.554;2023-09-07T02:34:22;4.80;;;3.37;;
72895;SDS011;61036;53.224;6.554;2023-09-07T02:36:47;6.60;;;4.47;;
72895;SDS011;61036;53.224;6.554;2023-09-07T02:39:13;6.57;;;3.90;;
72895;SDS011;61036;53.224;6.554;2023-09-07T02:41:39;8.00;;;4.37;;
72895;SDS011;61036;53.224;6.554;2023-09-07T02:44:04;7.43;;;3.60;;
72895;SDS011;61036;53.224;6.554;2023-09-07T02:46:30;8.90;;;4.10;;
72895;SDS011;61036;53.224;6.554;2023-09-07T02:48:56;6.47;;;4.20;;
72895;SDS011;61036;53.224;6.554;2023-09-07T02:51:24;9.00;;;4.07;;
72895;SDS011;61036;53.224;6.554;2023-09-07T02:53:51;6.90;;;4.27;;
72895;SDS011;61036;53.224;6.554;2023-09-07T02:56:17;7.43;;;4.40;;
72895;SDS011;61036;53.224;6.554;2023-09-07T02:58:43;6.50;;;4.60;;
72895;SDS011;61036;53.224;6.554;2023-09-07T03:01:08;6.03;;;3.73;;
72895;SDS011;61036;53.224;6.554;2023-09-07T03:03:34;6.40;;;4.10;;
72895;SDS011;61036;53.224;6.554;2023-09-07T03:06:07;7.80;;;4.80;;
72895;SDS011;61036;53.224;6.554;2023-09-07T03:08:42;7.03;;;4.53;;
72895;SDS011;61036;53.224;6.554;2023-09-07T03:11:10;6.30;;;4.10;;
72895;SDS011;61036;53.224;6.554;2023-09-07T03:13:37;6.87;;;4.50;;
72895;SDS011;61036;53.224;6.554;2023-09-07T03:16:03;7.57;;;4.77;;
72895;SDS011;61036;53.224;6.554;2023-09-07T03:18:30;7.13;;;4.77;;
72895;SDS011;61036;53.224;6.554;2023-09-07T03:20:58;6.07;;;4.00;;
72895;SDS011;61036;53.224;6.554;2023-09-07T03:23:30;7.10;;;4.70;;
72895;SDS011;61036;53.224;6.554;2023-09-07T03:25:58;7.13;;;4.47;;
72895;SDS011;61036;53.224;6.554;2023-09-07T03:28:24;7.17;;;5.00;;
72895;SDS011;61036;53.224;6.554;2023-09-07T03:30:55;7.03;;;4.73;;
72895;SDS011;61036;53.224;6.554;2023-09-07T03:33:22;5.70;;;4.03;;
72895;SDS011;61036;53.224;6.554;2023-09-07T03:35:48;5.63;;;4.23;;
72895;SDS011;61036;53.224;6.554;2023-09-07T03:38:14;7.73;;;4.27;;
72895;SDS011;61036;53.224;6.554;2023-09-07T03:40:39;8.03;;;4.27;;
72895;SDS011;61036;53.224;6.554;2023-09-07T03:43:06;6.67;;;4.57;;
72895;SDS011;61036;53.224;6.554;2023-09-07T03:45:33;8.57;;;4.67;;
72895;SDS011;61036;53.224;6.554;2023-09-07T03:47:59;6.70;;;5.00;;
72895;SDS011;61036;53.224;6.554;2023-09-07T03:50:25;8.20;;;5.20;;
72895;SDS011;61036;53.224;6.554;2023-09-07T03:52:51;7.47;;;5.03;;
72895;SDS011;61036;53.224;6.554;2023-09-07T03:55:16;8.57;;;5.47;;
72895;SDS011;61036;53.224;6.554;2023-09-07T03:57:42;7.77;;;5.03;;
72895;SDS011;61036;53.224;6.554;2023-09-07T04:00:09;6.70;;;5.03;;
72895;SDS011;61036;53.224;6.554;2023-09-07T04:02:38;7.63;;;4.70;;
72895;SDS011;61036;53.224;6.554;2023-09-07T04:05:04;6.50;;;4.87;;
72895;SDS011;61036;53.224;6.554;2023-09-07T04:07:31;7.27;;;4.57;;
72895;SDS011;61036;53.224;6.554;2023-09-07T04:09:58;7.83;;;4.80;;
72895;SDS011;61036;53.224;6.554;2023-09-07T04:12:24;8.10;;;5.30;;
72895;SDS011;61036;53.224;6.554;2023-09-07T04:14:50;7.93;;;5.20;;
72895;SDS011;61036;53.224;6.554;2023-09-07T04:17:15;7.00;;;5.10;;
72895;SDS011;61036;53.224;6.554;2023-09-07T04:19:41;6.70;;;4.97;;
72895;SDS011;61036;53.224;6.554;2023-09-07T04:22:08;8.40;;;5.27;;
72895;SDS011;61036;53.224;6.554;2023-09-07T04:24:35;6.90;;;5.27;;
72895;SDS011;61036;53.224;6.554;2023-09-07T04:27:02;7.23;;;4.93;;
72895;SDS011;61036;53.224;6.554;2023-09-07T04:29:31;8.40;;;6.10;;
72895;SDS011;61036;53.224;6.554;2023-09-07T04:31:57;8.17;;;5.20;;
72895;SDS011;61036;53.224;6.554;2023-09-07T04:34:23;7.67;;;5.20;;
72895;SDS011;61036;53.224;6.554;2023-09-07T04:36:49;8.30;;;5.97;;
72895;SDS011;61036;53.224;6.554;2023-09-07T04:39:15;6.83;;;5.30;;
72895;SDS011;61036;53.224;6.554;2023-09-07T04:41:41;9.67;;;6.00;;
72895;SDS011;61036;53.224;6.554;2023-09-07T04:44:06;9.00;;;5.90;;
72895;SDS011;61036;53.224;6.554;2023-09-07T04:46:32;8.10;;;5.17;;
72895;SDS011;61036;53.224;6.554;2023-09-07T04:48:58;9.43;;;6.07;;
72895;SDS011;61036;53.224;6.554;2023-09-07T04:51:24;8.43;;;5.60;;
72895;SDS011;61036;53.224;6.554;2023-09-07T04:53:51;9.27;;;5.50;;
72895;SDS011;61036;53.224;6.554;2023-09-07T04:56:17;7.13;;;5.43;;
72895;SDS011;61036;53.224;6.554;2023-09-07T04:58:43;8.73;;;5.40;;
72895;SDS011;61036;53.224;6.554;2023-09-07T05:01:10;8.00;;;5.77;;
72895;SDS011;61036;53.224;6.554;2023-09-07T05:03:37;9.77;;;6.57;;
72895;SDS011;61036;53.224;6.554;2023-09-07T05:06:06;9.43;;;6.00;;
72895;SDS011;61036;53.224;6.554;2023-09-07T05:08:32;9.47;;;6.87;;
72895;SDS011;61036;53.224;6.554;2023-09-07T05:10:58;10.23;;;5.60;;
72895;SDS011;61036;53.224;6.554;2023-09-07T05:13:26;7.13;;;5.57;;
72895;SDS011;61036;53.224;6.554;2023-09-07T05:15:53;8.97;;;5.70;;
72895;SDS011;61036;53.224;6.554;2023-09-07T05:18:20;8.37;;;5.60;;
72895;SDS011;61036;53.224;6.554;2023-09-07T05:20:46;8.60;;;5.70;;
72895;SDS011;61036;53.224;6.554;2023-09-07T05:23:19;8.63;;;5.60;;
72895;SDS011;61036;53.224;6.554;2023-09-07T05:25:46;8.50;;;5.43;;
72895;SDS011;61036;53.224;6.554;2023-09-07T05:28:14;7.90;;;5.43;;
72895;SDS011;61036;53.224;6.554;2023-09-07T05:30:40;8.67;;;5.70;;
72895;SDS011;61036;53.224;6.554;2023-09-07T05:33:07;8.80;;;6.00;;
72895;SDS011;61036;53.224;6.554;2023-09-07T05:35:34;9.60;;;5.77;;
72895;SDS011;61036;53.224;6.554;2023-09-07T05:38:02;7.27;;;5.80;;
72895;SDS011;61036;53.224;6.554;2023-09-07T05:40:28;8.50;;;6.07;;
72895;SDS011;61036;53.224;6.554;2023-09-07T05:42:54;8.67;;;6.20;;
72895;SDS011;61036;53.224;6.554;2023-09-07T05:45:20;8.47;;;5.97;;
72895;SDS011;61036;53.224;6.554;2023-09-07T05:47:46;9.13;;;6.30;;
72895;SDS011;61036;53.224;6.554;2023-09-07T05:50:12;7.33;;;5.93;;
72895;SDS011;61036;53.224;6.554;2023-09-07T05:52:37;8.07;;;5.70;;
72895;SDS011;61036;53.224;6.554;2023-09-07T05:55:03;10.43;;;6.93;;
72895;SDS011;61036;53.224;6.554;2023-09-07T05:57:29;10.10;;;6.80;;
72895;SDS011;61036;53.224;6.554;2023-09-07T05:59:55;7.13;;;5.57;;
72895;SDS011;61036;53.224;6.554;2023-09-07T06:02:21;10.17;;;6.10;;
72895;SDS011;61036;53.224;6.554;2023-09-07T06:04:46;7.90;;;6.07;;
72895;SDS011;61036;53.224;6.554;2023-09-07T06:07:12;10.77;;;6.77;;
72895;SDS011;61036;53.224;6.554;2023-09-07T06:09:38;8.17;;;5.73;;
72895;SDS011;61036;53.224;6.554;2023-09-07T06:12:04;10.90;;;6.97;;
72895;SDS011;61036;53.224;6.554;2023-09-07T06:14:30;9.40;;;6.67;;
72895;SDS011;61036;53.224;6.554;2023-09-07T06:16:56;9.27;;;6.33;;
72895;SDS011;61036;53.224;6.554;2023-09-07T06:19:22;10.57;;;6.10;;
72895;SDS011;61036;53.224;6.554;2023-09-07T06:21:47;13.03;;;7.10;;
72895;SDS011;61036;53.224;6.554;2023-09-07T06:24:14;8.53;;;6.00;;
72895;SDS011;61036;53.224;6.554;2023-09-07T06:26:40;9.93;;;5.93;;
72895;SDS011;61036;53.224;6.554;2023-09-07T06:29:08;9.97;;;6.77;;
72895;SDS011;61036;53.224;6.554;2023-09-07T06:31:34;9.63;;;7.03;;
72895;SDS011;61036;53.224;6.554;2023-09-07T06:33:59;9.40;;;6.97;;
72895;SDS011;61036;53.224;6.554;2023-09-07T06:36:26;9.77;;;6.67;;
72895;SDS011;61036;53.224;6.554;2023-09-07T06:38:52;10.30;;;6.70;;
72895;SDS011;61036;53.224;6.554;2023-09-07T06:41:17;10.87;;;6.63;;
72895;SDS011;61036;53.224;6.554;2023-09-07T06:43:43;9.03;;;5.90;;
72895;SDS011;61036;53.224;6.554;2023-09-07T06:46:09;8.50;;;6.30;;
72895;SDS011;61036;53.224;6.554;2023-09-07T06:48:35;9.57;;;6.40;;
72895;SDS011;61036;53.224;6.554;2023-09-07T06:51:01;8.63;;;5.83;;
72895;SDS011;61036;53.224;6.554;2023-09-07T06:53:30;10.47;;;6.30;;
72895;SDS011;61036;53.224;6.554;2023-09-07T06:55:59;11.27;;;6.10;;
72895;SDS011;61036;53.224;6.554;2023-09-07T06:58:26;9.93;;;6.07;;
72895;SDS011;61036;53.224;6.554;2023-09-07T07:01:00;11.33;;;6.23;;
72895;SDS011;61036;53.224;6.554;2023-09-07T07:03:28;11.77;;;6.17;;
72895;SDS011;61036;53.224;6.554;2023-09-07T07:05:55;10.30;;;5.47;;
72895;SDS011;61036;53.224;6.554;2023-09-07T07:08:21;9.80;;;6.50;;
72895;SDS011;61036;53.224;6.554;2023-09-07T07:10:47;9.90;;;5.93;;
72895;SDS011;61036;53.224;6.554;2023-09-07T07:13:13;9.90;;;6.10;;
72895;SDS011;61036;53.224;6.554;2023-09-07T07:15:39;11.33;;;5.73;;
72895;SDS011;61036;53.224;6.554;2023-09-07T07:18:05;8.77;;;6.80;;
72895;SDS011;61036;53.224;6.554;2023-09-07T07:20:34;9.53;;;6.10;;
72895;SDS011;61036;53.224;6.554;2023-09-07T07:23:01;8.40;;;6.13;;
72895;SDS011;61036;53.224;6.554;2023-09-07T07:25:26;11.17;;;6.83;;
72895;SDS011;61036;53.224;6.554;2023-09-07T07:27:53;12.37;;;6.37;;
72895;SDS011;61036;53.224;6.554;2023-09-07T07:30:19;8.43;;;5.37;;
72895;SDS011;61036;53.224;6.554;2023-09-07T07:32:44;9.17;;;6.20;;
72895;SDS011;61036;53.224;6.554;2023-09-07T07:35:10;9.23;;;6.20;;
72895;SDS011;61036;53.224;6.554;2023-09-07T07:37:36;8.70;;;5.73;;
72895;SDS011;61036;53.224;6.554;2023-09-07T07:40:04;7.97;;;5.60;;
72895;SDS011;61036;53.224;6.554;2023-09-07T07:42:30;9.50;;;6.00;;
72895;SDS011;61036;53.224;6.554;2023-09-07T07:44:55;8.53;;;5.57;;
72895;SDS011;61036;53.224;6.554;2023-09-07T07:47:21;9.87;;;6.43;;
72895;SDS011;61036;53.224;6.554;2023-09-07T07:49:47;9.53;;;6.23;;
72895;SDS011;61036;53.224;6.554;2023-09-07T07:52:13;8.87;;;5.90;;
72895;SDS011;61036;53.224;6.554;2023-09-07T07:54:38;10.40;;;5.90;;
72895;SDS011;61036;53.224;6.554;2023-09-07T07:57:04;9.37;;;7.30;;
72895;SDS011;61036;53.224;6.554;2023-09-07T07:59:33;10.90;;;6.70;;
72895;SDS011;61036;53.224;6.554;2023-09-07T08:01:59;10.97;;;6.77;;
72895;SDS011;61036;53.224;6.554;2023-09-07T08:04:25;9.47;;;6.83;;
72895;SDS011;61036;53.224;6.554;2023-09-07T08:06:51;9.03;;;6.47;;
72895;SDS011;61036;53.224;6.554;2023-09-07T08:09:21;8.13;;;6.23;;
72895;SDS011;61036;53.224;6.554;2023-09-07T08:11:47;8.57;;;6.23;;
72895;SDS011;61036;53.224;6.554;2023-09-07T08:14:16;8.77;;;7.33;;
72895;SDS011;61036;53.224;6.554;2023-09-07T08:16:42;10.83;;;7.30;;
72895;SDS011;61036;53.224;6.554;2023-09-07T08:19:08;9.37;;;6.90;;
72895;SDS011;61036;53.224;6.554;2023-09-07T08:21:33;9.03;;;6.40;;
72895;SDS011;61036;53.224;6.554;2023-09-07T08:24:00;11.20;;;6.97;;
72895;SDS011;61036;53.224;6.554;2023-09-07T08:26:26;10.23;;;5.90;;
72895;SDS011;61036;53.224;6.554;2023-09-07T08:28:52;9.30;;;6.97;;
72895;SDS011;61036;53.224;6.554;2023-09-07T08:31:17;9.57;;;7.50;;
72895;SDS011;61036;53.224;6.554;2023-09-07T08:33:47;9.07;;;7.87;;
72895;SDS011;61036;53.224;6.554;2023-09-07T08:36:16;8.40;;;6.63;;
72895;SDS011;61036;53.224;6.554;2023-09-07T08:38:42;9.53;;;7.33;;
72895;SDS011;61036;53.224;6.554;2023-09-07T08:41:08;11.50;;;7.43;;
72895;SDS011;61036;53.224;6.554;2023-09-07T08:43:35;11.10;;;6.90;;
72895;SDS011;61036;53.224;6.554;2023-09-07T08:46:14;9.80;;;6.80;;
72895;SDS011;61036;53.224;6.554;2023-09-07T08:48:43;8.70;;;6.60;;
72895;SDS011;61036;53.224;6.554;2023-09-07T08:51:09;7.77;;;6.33;;
72895;SDS011;61036;53.224;6.554;2023-09-07T08:53:37;10.77;;;7.30;;
72895;SDS011;61036;53.224;6.554;2023-09-07T08:56:04;8.07;;;6.70;;
72895;SDS011;61036;53.224;6.554;2023-09-07T08:58:35;11.23;;;7.33;;
72895;SDS011;61036;53.224;6.554;2023-09-07T09:01:01;8.63;;;6.90;;
72895;SDS011;61036;53.224;6.554;2023-09-07T09:03:27;9.13;;;6.37;;
72895;SDS011;61036;53.224;6.554;2023-09-07T09:05:54;8.20;;;6.77;;
72895;SDS011;61036;53.224;6.554;2023-09-07T09:08:21;12.10;;;7.07;;
72895;SDS011;61036;53.224;6.554;2023-09-07T09:10:59;7.77;;;6.50;;
72895;SDS011;61036;53.224;6.554;2023-09-07T09:13:32;8.10;;;6.17;;
72895;SDS011;61036;53.224;6.554;2023-09-07T09:15:59;9.47;;;6.53;;
72895;SDS011;61036;53.224;6.554;2023-09-07T09:18:28;8.70;;;6.47;;
72895;SDS011;61036;53.224;6.554;2023-09-07T09:20:55;12.33;;;6.40;;
72895;SDS011;61036;53.224;6.554;2023-09-07T09:23:21;12.63;;;6.00;;
72895;SDS011;61036;53.224;6.554;2023-09-07T09:25:50;11.03;;;6.67;;
72895;SDS011;61036;53.224;6.554;2023-09-07T09:28:16;9.37;;;5.70;;
72895;SDS011;61036;53.224;6.554;2023-09-07T09:30:42;7.97;;;5.67;;
72895;SDS011;61036;53.224;6.554;2023-09-07T09:33:11;10.37;;;6.27;;
72895;SDS011;61036;53.224;6.554;2023-09-07T09:35:37;7.70;;;6.00;;
72895;SDS011;61036;53.224;6.554;2023-09-07T09:38:06;7.93;;;6.13;;
72895;SDS011;61036;53.224;6.554;2023-09-07T09:40:32;7.90;;;5.93;;
72895;SDS011;61036;53.224;6.554;2023-09-07T09:43:01;9.50;;;6.23;;
72895;SDS011;61036;53.224;6.554;2023-09-07T09:45:27;8.73;;;5.77;;
72895;SDS011;61036;53.224;6.554;2023-09-07T09:47:54;8.10;;;5.73;;
72895;SDS011;61036;53.224;6.554;2023-09-07T09:50:23;8.00;;;6.03;;
72895;SDS011;61036;53.224;6.554;2023-09-07T09:52:50;9.27;;;6.13;;
72895;SDS011;61036;53.224;6.554;2023-09-07T09:55:18;11.63;;;6.10;;
72895;SDS011;61036;53.224;6.554;2023-09-07T09:57:44;8.23;;;5.30;;
72895;SDS011;61036;53.224;6.554;2023-09-07T10:00:10;6.80;;;5.70;;
72895;SDS011;61036;53.224;6.554;2023-09-07T10:02:54;7.60;;;5.97;;
72895;SDS011;61036;53.224;6.554;2023-09-07T10:05:25;7.70;;;5.70;;
72895;SDS011;61036;53.224;6.554;2023-09-07T10:07:52;7.60;;;5.40;;
72895;SDS011;61036;53.224;6.554;2023-09-07T10:10:18;6.70;;;5.87;;
72895;SDS011;61036;53.224;6.554;2023-09-07T10:12:45;8.07;;;5.37;;
72895;SDS011;61036;53.224;6.554;2023-09-07T10:15:20;8.70;;;5.90;;
72895;SDS011;61036;53.224;6.554;2023-09-07T10:17:46;8.60;;;5.87;;
72895;SDS011;61036;53.224;6.554;2023-09-07T10:20:15;7.47;;;5.67;;
72895;SDS011;61036;53.224;6.554;2023-09-07T10:22:43;8.97;;;5.90;;
72895;SDS011;61036;53.224;6.554;2023-09-07T10:25:21;8.83;;;6.40;;
72895;SDS011;61036;53.224;6.554;2023-09-07T10:27:48;7.60;;;5.40;;
72895;SDS011;61036;53.224;6.554;2023-09-07T10:30:14;7.70;;;5.70;;
72895;SDS011;61036;53.224;6.554;2023-09-07T10:32:47;8.30;;;5.93;;
72895;SDS011;61036;53.224;6.554;2023-09-07T10:35:17;9.60;;;6.27;;
72895;SDS011;61036;53.224;6.554;2023-09-07T10:37:47;8.27;;;6.00;;
72895;SDS011;61036;53.224;6.554;2023-09-07T10:40:18;9.37;;;6.60;;
72895;SDS011;61036;53.224;6.554;2023-09-07T10:42:44;7.57;;;5.40;;
72895;SDS011;61036;53.224;6.554;2023-09-07T10:45:10;9.43;;;5.73;;
72895;SDS011;61036;53.224;6.554;2023-09-07T10:47:44;7.00;;;5.73;;
72895;SDS011;61036;53.224;6.554;2023-09-07T10:50:11;8.03;;;5.60;;
72895;SDS011;61036;53.224;6.554;2023-09-07T10:52:42;12.30;;;5.73;;
72895;SDS011;61036;53.224;6.554;2023-09-07T10:55:08;8.37;;;5.70;;
72895;SDS011;61036;53.224;6.554;2023-09-07T10:57:42;7.93;;;5.73;;
72895;SDS011;61036;53.224;6.554;2023-09-07T11:00:12;7.67;;;5.80;;
72895;SDS011;61036;53.224;6.554;2023-09-07T11:02:38;7.30;;;5.87;;
72895;SDS011;61036;53.224;6.554;2023-09-07T11:05:08;7.90;;;5.80;;
72895;SDS011;61036;53.224;6.554;2023-09-07T11:07:33;9.77;;;5.90;;
72895;SDS011;61036;53.224;6.554;2023-09-07T11:10:00;7.00;;;5.43;;
72895;SDS011;61036;53.224;6.554;2023-09-07T11:12:26;7.47;;;5.60;;
72895;SDS011;61036;53.224;6.554;2023-09-07T11:14:51;8.83;;;5.33;;
72895;SDS011;61036;53.224;6.554;2023-09-07T11:17:25;8.60;;;5.73;;
72895;SDS011;61036;53.224;6.554;2023-09-07T11:19:52;8.17;;;5.67;;
72895;SDS011;61036;53.224;6.554;2023-09-07T11:22:18;10.83;;;5.67;;
72895;SDS011;61036;53.224;6.554;2023-09-07T11:24:44;7.83;;;5.30;;
72895;SDS011;61036;53.224;6.554;2023-09-07T11:27:11;8.13;;;5.10;;
72895;SDS011;61036;53.224;6.554;2023-09-07T11:29:37;7.60;;;5.37;;
72895;SDS011;61036;53.224;6.554;2023-09-07T11:32:07;9.07;;;5.60;;
72895;SDS011;61036;53.224;6.554;2023-09-07T11:34:34;7.23;;;6.23;;
72895;SDS011;61036;53.224;6.554;2023-09-07T11:37:01;8.33;;;5.37;;
72895;SDS011;61036;53.224;6.554;2023-09-07T11:39:28;9.07;;;5.80;;
72895;SDS011;61036;53.224;6.554;2023-09-07T11:41:54;7.57;;;5.20;;
72895;SDS011;61036;53.224;6.554;2023-09-07T11:44:20;9.37;;;5.20;;
72895;SDS011;61036;53.224;6.554;2023-09-07T11:46:45;14.67;;;8.73;;
72895;SDS011;61036;53.224;6.554;2023-09-07T11:49:11;7.33;;;6.30;;
72895;SDS011;61036;53.224;6.554;2023-09-07T11:51:37;7.90;;;5.30;;
72895;SDS011;61036;53.224;6.554;2023-09-07T11:54:03;7.63;;;5.00;;
72895;SDS011;61036;53.224;6.554;2023-09-07T11:56:29;9.60;;;5.40;;
72895;SDS011;61036;53.224;6.554;2023-09-07T11:58:55;8.73;;;5.10;;
72895;SDS011;61036;53.224;6.554;2023-09-07T12:01:21;10.43;;;5.53;;
72895;SDS011;61036;53.224;6.554;2023-09-07T12:03:46;6.73;;;5.30;;
72895;SDS011;61036;53.224;6.554;2023-09-07T12:06:12;8.47;;;5.60;;
72895;SDS011;61036;53.224;6.554;2023-09-07T12:08:41;8.07;;;5.20;;
72895;SDS011;61036;53.224;6.554;2023-09-07T12:11:08;7.40;;;5.60;;
72895;SDS011;61036;53.224;6.554;2023-09-07T12:13:33;8.40;;;5.00;;
72895;SDS011;61036;53.224;6.554;2023-09-07T12:15:59;12.03;;;5.10;;
72895;SDS011;61036;53.224;6.554;2023-09-07T12:18:27;9.83;;;5.33;;
72895;SDS011;61036;53.224;6.554;2023-09-07T12:20:53;7.77;;;5.20;;
72895;SDS011;61036;53.224;6.554;2023-09-07T12:23:19;11.07;;;5.87;;
72895;SDS011;61036;53.224;6.554;2023-09-07T12:25:44;6.63;;;4.83;;
72895;SDS011;61036;53.224;6.554;2023-09-07T12:28:15;9.40;;;5.77;;
72895;SDS011;61036;53.224;6.554;2023-09-07T12:30:41;8.90;;;5.40;;
72895;SDS011;61036;53.224;6.554;2023-09-07T12:33:09;8.10;;;5.80;;
72895;SDS011;61036;53.224;6.554;2023-09-07T12:35:35;10.53;;;5.40;;
72895;SDS011;61036;53.224;6.554;2023-09-07T12:38:00;7.10;;;6.10;;
72895;SDS011;61036;53.224;6.554;2023-09-07T12:40:26;8.97;;;5.83;;
72895;SDS011;61036;53.224;6.554;2023-09-07T12:42:52;8.13;;;5.70;;
72895;SDS011;61036;53.224;6.554;2023-09-07T12:45:18;8.23;;;5.83;;
72895;SDS011;61036;53.224;6.554;2023-09-07T12:47:43;8.27;;;5.53;;
72895;SDS011;61036;53.224;6.554;2023-09-07T12:50:09;11.17;;;6.07;;
72895;SDS011;61036;53.224;6.554;2023-09-07T12:52:34;8.67;;;5.60;;
72895;SDS011;61036;53.224;6.554;2023-09-07T12:55:04;10.37;;;6.37;;
72895;SDS011;61036;53.224;6.554;2023-09-07T12:57:30;10.07;;;5.93;;
72895;SDS011;61036;53.224;6.554;2023-09-07T12:59:56;7.50;;;5.50;;
72895;SDS011;61036;53.224;6.554;2023-09-07T13:02:21;7.40;;;5.40;;
72895;SDS011;61036;53.224;6.554;2023-09-07T13:04:47;9.20;;;5.80;;
72895;SDS011;61036;53.224;6.554;2023-09-07T13:07:13;9.23;;;5.80;;
72895;SDS011;61036;53.224;6.554;2023-09-07T13:09:38;6.93;;;5.13;;
72895;SDS011;61036;53.224;6.554;2023-09-07T13:12:04;8.07;;;5.67;;
72895;SDS011;61036;53.224;6.554;2023-09-07T13:14:30;8.07;;;5.30;;
72895;SDS011;61036;53.224;6.554;2023-09-07T13:16:55;9.37;;;6.17;;
72895;SDS011;61036;53.224;6.554;2023-09-07T13:19:21;8.73;;;5.83;;
72895;SDS011;61036;53.224;6.554;2023-09-07T13:21:47;9.93;;;5.47;;
72895;SDS011;61036;53.224;6.554;2023-09-07T13:24:12;7.53;;;5.80;;
72895;SDS011;61036;53.224;6.554;2023-09-07T13:26:39;8.87;;;5.90;;
72895;SDS011;61036;53.224;6.554;2023-09-07T13:29:05;6.87;;;5.57;;
72895;SDS011;61036;53.224;6.554;2023-09-07T13:31:31;9.70;;;5.30;;
72895;SDS011;61036;53.224;6.554;2023-09-07T13:33:56;11.40;;;5.80;;
72895;SDS011;61036;53.224;6.554;2023-09-07T13:36:22;10.80;;;5.77;;
72895;SDS011;61036;53.224;6.554;2023-09-07T13:38:48;10.83;;;5.40;;
72895;SDS011;61036;53.224;6.554;2023-09-07T13:41:13;7.67;;;5.50;;
72895;SDS011;61036;53.224;6.554;2023-09-07T13:43:39;9.60;;;5.63;;
72895;SDS011;61036;53.224;6.554;2023-09-07T13:46:04;7.77;;;5.23;;
72895;SDS011;61036;53.224;6.554;2023-09-07T13:48:30;7.90;;;5.70;;
72895;SDS011;61036;53.224;6.554;2023-09-07T13:50:57;8.23;;;5.30;;
72895;SDS011;61036;53.224;6.554;2023-09-07T13:53:23;7.77;;;5.70;;
72895;SDS011;61036;53.224;6.554;2023-09-07T13:55:49;8.47;;;5.40;;
72895;SDS011;61036;53.224;6.554;2023-09-07T13:58:15;8.30;;;5.27;;
72895;SDS011;61036;53.224;6.554;2023-09-07T14:00:41;7.67;;;5.40;;
72895;SDS011;61036;53.224;6.554;2023-09-07T14:03:07;7.07;;;5.00;;
72895;SDS011;61036;53.224;6.554;2023-09-07T14:05:32;9.97;;;5.30;;
72895;SDS011;61036;53.224;6.554;2023-09-07T14:07:58;8.27;;;5.93;;
72895;SDS011;61036;53.224;6.554;2023-09-07T14:10:23;9.07;;;5.43;;
72895;SDS011;61036;53.224;6.554;2023-09-07T14:12:49;8.23;;;5.00;;
72895;SDS011;61036;53.224;6.554;2023-09-07T14:15:14;7.20;;;5.80;;
72895;SDS011;61036;53.224;6.554;2023-09-07T14:17:40;7.53;;;5.50;;
72895;SDS011;61036;53.224;6.554;2023-09-07T14:20:06;6.83;;;5.57;;
72895;SDS011;61036;53.224;6.554;2023-09-07T14:22:32;7.40;;;5.43;;
72895;SDS011;61036;53.224;6.554;2023-09-07T14:24:57;8.03;;;5.37;;
72895;SDS011;61036;53.224;6.554;2023-09-07T14:27:23;8.00;;;5.37;;
72895;SDS011;61036;53.224;6.554;2023-09-07T14:29:49;10.23;;;5.50;;
72895;SDS011;61036;53.224;6.554;2023-09-07T14:32:15;8.40;;;5.23;;
72895;SDS011;61036;53.224;6.554;2023-09-07T14:34:40;7.33;;;5.33;;
72895;SDS011;61036;53.224;6.554;2023-09-07T14:37:06;8.13;;;5.57;;
72895;SDS011;61036;53.224;6.554;2023-09-07T14:39:31;7.87;;;5.47;;
72895;SDS011;61036;53.224;6.554;2023-09-07T14:41:57;6.93;;;5.20;;